createdAt,value
2019-04-11T00:10:22.841Z,16
2019-04-11T00:21:04.853Z,16
2019-04-11T00:31:49.420Z,15
2019-04-11T00:42:28.659Z,16
2019-04-11T00:53:13.940Z,16
2019-04-11T01:03:57.363Z,16
2019-04-11T01:14:41.161Z,16
2019-04-11T01:25:24.392Z,16
2019-04-11T01:36:07.264Z,16
2019-04-11T01:46:52.032Z,16
2019-04-11T01:57:34.625Z,15
2019-04-11T02:08:18.109Z,17
2019-04-11T02:19:01.642Z,17
2019-04-11T02:29:43.184Z,17
2019-04-11T02:40:28.191Z,17
2019-04-11T02:51:12.441Z,17
2019-04-11T03:01:53.671Z,17
2019-04-11T03:12:38.358Z,17
2019-04-11T03:23:23.598Z,17
2019-04-11T03:35:06.257Z,17
2019-04-11T03:45:15.105Z,17
2019-04-11T03:55:32.551Z,18
2019-04-11T04:06:16.833Z,18
2019-04-11T04:16:56.471Z,18
2019-04-11T04:27:38.766Z,18
2019-04-11T04:38:15.699Z,19
2019-04-11T04:48:58.498Z,19
2019-04-11T04:59:42.550Z,19
2019-04-11T05:10:24.154Z,19
2019-04-11T05:21:05.334Z,19
2019-04-11T05:31:49.293Z,19
2019-04-11T05:42:33.467Z,19
2019-04-11T05:53:21.322Z,16
2019-04-11T06:04:15.193Z,14
2019-04-11T06:14:59.693Z,15
2019-04-11T06:25:46.765Z,14
2019-04-11T06:36:26.673Z,15
2019-04-11T06:47:05.394Z,14
2019-04-11T06:57:45.879Z,13
2019-04-11T07:08:27.604Z,13
2019-04-11T07:19:11.407Z,10
2019-04-11T07:29:52.066Z,11
2019-04-11T07:40:33.341Z,10
2019-04-11T07:51:17.464Z,10
2019-04-11T08:01:59.871Z,10
2019-04-11T08:12:43.864Z,10
2019-04-11T08:23:29.619Z,11
2019-04-11T08:34:09.277Z,10
2019-04-11T08:44:52.132Z,11
2019-04-11T08:55:43.719Z,11
2019-04-11T09:06:12.619Z,11
2019-04-11T09:16:56.257Z,10
2019-04-11T09:27:38.557Z,10
2019-04-11T09:38:22.833Z,9
2019-04-11T09:49:07.105Z,10
2019-04-11T09:59:51.855Z,9
2019-04-11T10:10:31.417Z,9
2019-04-11T10:21:15.497Z,9
2019-04-11T10:31:50.620Z,9
2019-04-11T10:42:30.738Z,9
2019-04-11T10:53:07.185Z,9
2019-04-11T11:03:49.388Z,9
2019-04-11T11:14:29.025Z,9
2019-04-11T11:25:12.710Z,9
2019-04-11T11:35:50.349Z,9
2019-04-11T11:46:31.581Z,8
2019-04-11T11:57:11.151Z,9
2019-04-11T12:07:51.467Z,9
2019-04-11T12:18:35.252Z,9
2019-04-11T12:29:02.985Z,9
2019-04-11T12:39:42.129Z,8
2019-04-11T12:50:21.174Z,8
2019-04-11T13:01:01.987Z,8
2019-04-11T13:11:43.321Z,8
2019-04-11T13:22:23.139Z,8
2019-04-11T13:33:04.361Z,8
2019-04-11T13:43:44.947Z,8
2019-04-11T13:54:21.482Z,8
2019-04-11T14:04:59.995Z,7
2019-04-11T14:15:36.619Z,8
2019-04-11T14:26:16.981Z,8
2019-04-11T14:36:54.179Z,8
2019-04-11T14:47:29.988Z,8
2019-04-11T14:58:10.047Z,8
2019-04-11T15:08:47.439Z,8
2019-04-11T15:19:17.777Z,8
2019-04-11T15:29:54.541Z,9
2019-04-11T15:40:37.630Z,8
2019-04-11T15:51:21.778Z,8
2019-04-11T16:02:05.360Z,8
2019-04-11T16:12:47.169Z,8
2019-04-11T16:23:32.944Z,8
2019-04-11T16:34:16.202Z,8
2019-04-11T16:44:57.525Z,8
2019-04-11T16:55:37.030Z,8
2019-04-11T17:06:17.168Z,8
2019-04-11T17:16:54.991Z,8
2019-04-11T17:27:36.712Z,9
2019-04-11T17:38:15.396Z,9
2019-04-11T17:48:58.553Z,9
2019-04-11T17:59:38.354Z,9
2019-04-11T18:10:13.389Z,9
2019-04-11T18:20:56.372Z,9
2019-04-11T18:31:39.601Z,8
2019-04-11T18:42:23.344Z,9
2019-04-11T18:53:00.200Z,9
2019-04-11T19:03:43.772Z,10
2019-04-11T19:14:25.621Z,10
2019-04-11T19:25:04.486Z,10
2019-04-11T19:35:47.490Z,9
2019-04-11T19:46:29.792Z,10
2019-04-11T19:57:12.053Z,10
2019-04-11T20:07:56.866Z,10
2019-04-11T20:18:37.631Z,10
2019-04-11T20:29:21.170Z,10
2019-04-11T20:39:58.708Z,11
2019-04-11T20:50:39.770Z,10
2019-04-11T21:01:23.807Z,10
2019-04-11T21:12:04.900Z,10
2019-04-11T21:22:43.220Z,10
2019-04-11T21:33:23.590Z,9
2019-04-11T21:43:58.247Z,9
2019-04-11T21:54:39.856Z,9
2019-04-11T22:05:21.727Z,8
2019-04-11T22:16:01.808Z,8
2019-04-11T22:17:16.059Z,8
2019-04-11T22:27:53.890Z,8
2019-04-11T22:38:31.894Z,7
2019-04-11T22:49:12.286Z,7
2019-04-11T22:59:51.055Z,7
2019-04-11T23:10:35.251Z,7
2019-04-11T23:21:20.643Z,7
2019-04-11T23:32:02.232Z,7
2019-04-11T23:42:45.318Z,7
2019-04-11T23:53:28.153Z,7
